createdAt,value
2022-08-09T00:01:05.594Z,99133.53
2022-08-09T00:04:06.398Z,99123.09
2022-08-09T00:06:24.315Z,99117.94
2022-08-09T00:08:52.238Z,99110.66
2022-08-09T00:11:27.748Z,99111.44
2022-08-09T00:14:11.280Z,99114.16
2022-08-09T00:16:44.660Z,99111.69
2022-08-09T00:19:14.119Z,99111.06
2022-08-09T00:21:55.841Z,99106.59
2022-08-09T00:24:24.325Z,99114.28
2022-08-09T00:26:51.191Z,99116.41
2022-08-09T00:29:39.665Z,99112.63
2022-08-09T00:32:05.578Z,99123.19
2022-08-09T00:34:33.464Z,99119.09
2022-08-09T00:37:00.153Z,99121.88
2022-08-09T00:40:13.054Z,99114.09
2022-08-09T00:44:14.659Z,99120.38
2022-08-09T00:44:59.621Z,99116.66
2022-08-09T00:47:33.161Z,99121.66
2022-08-09T00:50:06.916Z,99119.59
2022-08-09T00:52:40.825Z,99120.44
2022-08-09T00:55:08.916Z,99119.66
2022-08-09T00:57:43.310Z,99120.13
2022-08-09T01:00:21.052Z,99109.25
2022-08-09T01:03:03.076Z,99108.09
2022-08-09T01:05:53.840Z,99117.47
2022-08-09T01:08:34.741Z,99118.38
2022-08-09T01:11:17.612Z,99112.34
2022-08-09T01:13:59.941Z,99124.28
2022-08-09T01:16:33.022Z,99112.19
2022-08-09T01:19:07.119Z,99112.56
2022-08-09T01:21:59.348Z,99112.41
2022-08-09T01:24:39.904Z,99111.97
2022-08-09T01:27:15.103Z,99111.53
2022-08-09T01:29:55.131Z,99116.16
2022-08-09T01:32:29.899Z,99114.06
2022-08-09T01:35:53.260Z,99118.25
2022-08-09T01:38:24.526Z,99117.28
2022-08-09T01:41:03.040Z,99119.81
2022-08-09T01:43:41.849Z,99121.03
2022-08-09T01:46:26.529Z,99116.50
2022-08-09T01:49:00.019Z,99121.13
2022-08-09T01:51:28.659Z,99122.53
2022-08-09T01:54:02.001Z,99122.97
2022-08-09T01:56:30.554Z,99117.13
2022-08-09T01:59:01.374Z,99115.25
2022-08-09T02:01:30.594Z,99125.06
2022-08-09T02:04:17.319Z,99131.53
2022-08-09T02:07:04.232Z,99133.19
2022-08-09T02:24:54.168Z,99151.31
2022-08-09T02:27:27.444Z,99156.13
2022-08-09T02:30:10.911Z,99155.69
2022-08-09T02:32:43.278Z,99162.78
2022-08-09T02:35:20.887Z,99151.78
2022-08-09T02:37:57.709Z,99152.22
2022-08-09T02:40:30.281Z,99151.97
2022-08-09T02:43:00.827Z,99149.25
2022-08-09T02:45:32.961Z,99156.16
2022-08-09T02:48:03.988Z,99148.66
2022-08-09T02:50:38.195Z,99153.44
2022-08-09T02:53:26.395Z,99153.25
2022-08-09T02:55:58.501Z,99157.41
2022-08-09T02:58:32.626Z,99152.84
2022-08-09T03:01:04.377Z,99149.88
2022-08-09T03:04:12.442Z,99154.72
2022-08-09T03:06:22.553Z,99151.38
2022-08-09T03:08:52.375Z,99144.50
2022-08-09T03:12:04.365Z,99149.13
2022-08-09T03:14:10.532Z,99153.69
2022-08-09T03:16:41.640Z,99155.78
2022-08-09T03:19:14.500Z,99152.25
2022-08-09T03:21:57.842Z,99159.97
2022-08-09T03:24:36.831Z,99160.81
2022-08-09T03:27:10.858Z,99162.69
2022-08-09T03:29:43.211Z,99163.75
2022-08-09T03:32:25.299Z,99162.69
2022-08-09T03:34:54.165Z,99163.75
2022-08-09T03:37:56.180Z,99163.53
2022-08-09T03:40:13.079Z,99153.31
2022-08-09T03:42:43.080Z,99163.75
2022-08-09T03:45:10.815Z,99168.97
2022-08-09T03:47:39.932Z,99163.53
2022-08-09T03:50:10.627Z,99172.28
2022-08-09T03:52:40.467Z,99171.44
2022-08-09T03:55:10.580Z,99171.22
2022-08-09T03:57:44.779Z,99171.22
2022-08-09T04:00:24.839Z,99181.25
2022-08-09T04:02:54.121Z,99175.19
2022-08-09T04:05:27.565Z,99181.44
2022-08-09T04:07:57.170Z,99172.91
2022-08-09T04:10:29.368Z,99173.09
2022-08-09T04:13:01.411Z,99174.13
2022-08-09T04:16:18.870Z,99173.50
2022-08-09T04:18:18.145Z,99173.47
2022-08-09T04:20:50.042Z,99169.53
2022-08-09T04:23:18.017Z,99164.94
2022-08-09T04:25:52.944Z,99168.09
2022-08-09T04:28:33.123Z,99177.84
2022-08-09T04:31:08.324Z,99182.00
2022-08-09T04:33:52.308Z,99179.50
2022-08-09T04:36:25.587Z,99182.66
2022-08-09T04:38:57.378Z,99187.84
2022-08-09T04:41:32.275Z,99183.50
2022-08-09T04:44:07.176Z,99189.75
2022-08-09T04:46:57.715Z,99191.00
2022-08-09T04:49:52.041Z,99190.00
2022-08-09T04:52:10.429Z,99193.78
2022-08-09T04:54:36.917Z,99199.59
2022-08-09T04:57:03.861Z,99203.97
2022-08-09T04:59:30.700Z,99209.59
2022-08-09T05:01:57.304Z,99210.44
2022-08-09T05:04:23.877Z,99208.16
2022-08-09T05:06:58.382Z,99217.53
2022-08-09T05:09:25.139Z,99214.41
2022-08-09T05:12:08.760Z,99217.09
2022-08-09T05:14:35.392Z,99210.59
2022-08-09T05:17:01.879Z,99214.31
2022-08-09T05:19:31.937Z,99211.81
2022-08-09T05:22:36.126Z,99215.31
2022-08-09T05:25:01.113Z,99219.00
2022-08-09T05:27:31.056Z,99207.25
2022-08-09T05:29:57.989Z,99212.22
2022-08-09T05:32:26.192Z,99209.91
2022-08-09T05:34:56.674Z,99217.69
2022-08-09T05:37:23.741Z,99211.63
2022-08-09T05:39:52.266Z,99209.13
2022-08-09T05:42:21.857Z,99213.19
2022-08-09T05:44:55.523Z,99208.06
2022-08-09T05:47:23.705Z,99220.63
2022-08-09T05:50:30.564Z,99216.81
2022-08-09T05:52:43.699Z,99220.59
2022-08-09T05:55:18.189Z,99227.09
2022-08-09T05:57:55.671Z,99218.53
2022-08-09T06:00:25.814Z,99230.63
2022-08-09T06:02:54.164Z,99222.50
2022-08-09T06:05:30.578Z,99219.31
2022-08-09T06:08:11.189Z,99225.06
2022-08-09T06:10:38.189Z,99220.69
2022-08-09T06:13:12.246Z,99229.28
2022-08-09T06:15:45.130Z,99226.94
2022-08-09T06:18:14.095Z,99220.34
2022-08-09T06:20:42.700Z,99230.09
2022-08-09T06:23:12.085Z,99227.41
2022-08-09T06:25:43.228Z,99235.66
2022-08-09T06:28:09.982Z,99238.44
2022-08-09T06:30:36.821Z,99238.88
2022-08-09T06:33:30.368Z,99238.94
2022-08-09T06:35:56.823Z,99228.81
2022-08-09T06:38:37.213Z,99235.16
2022-08-09T06:41:18.116Z,99232.97
2022-08-09T06:43:47.428Z,99239.13
2022-08-09T06:46:39.835Z,99229.38
2022-08-09T06:49:01.227Z,99222.56
2022-08-09T06:51:28.127Z,99223.34
2022-08-09T06:53:55.101Z,99217.13
2022-08-09T06:56:21.576Z,99222.84
2022-08-09T07:00:51.713Z,99223.72
2022-08-09T07:01:54.546Z,99214.75
2022-08-09T07:04:25.000Z,99219.94
2022-08-09T07:06:59.995Z,99219.19
2022-08-09T07:09:55.865Z,99212.56
2022-08-09T07:12:18.211Z,99221.97
2022-08-09T07:14:51.430Z,99211.81
2022-08-09T07:17:20.170Z,99223.63
2022-08-09T07:19:55.215Z,99213.97
2022-08-09T07:22:34.782Z,99227.09
2022-08-09T07:25:09.727Z,99223.41
2022-08-09T07:27:42.579Z,99215.47
2022-08-09T07:30:19.600Z,99215.97
2022-08-09T07:32:48.460Z,99218.75
2022-08-09T07:35:18.138Z,99217.41
2022-08-09T07:37:46.242Z,99211.81
2022-08-09T07:40:20.126Z,99213.97
2022-08-09T07:42:58.465Z,99215.50
2022-08-09T07:45:39.709Z,99224.41
2022-08-09T07:48:25.322Z,99216.44
2022-08-09T07:51:10.215Z,99214.56
2022-08-09T07:54:05.005Z,99210.72
2022-08-09T07:56:34.372Z,99210.06
2022-08-09T07:59:04.429Z,99212.88
2022-08-09T08:01:39.700Z,99210.94
2022-08-09T08:04:10.693Z,99213.56
2022-08-09T08:06:37.367Z,99215.13
2022-08-09T08:09:36.396Z,99216.63
2022-08-09T08:12:27.607Z,99212.66
2022-08-09T08:14:55.351Z,99208.97
2022-08-09T08:17:34.985Z,99217.81
2022-08-09T08:20:13.050Z,99220.56
2022-08-09T08:22:40.687Z,99217.53
2022-08-09T08:25:09.482Z,99220.16
2022-08-09T08:27:41.193Z,99206.88
2022-08-09T08:30:11.375Z,99207.47
2022-08-09T08:32:52.236Z,99202.56
2022-08-09T08:35:22.544Z,99211.97
2022-08-09T08:38:01.890Z,99214.44
2022-08-09T08:40:36.032Z,99216.00
2022-08-09T08:43:08.832Z,99205.00
2022-08-09T08:45:53.573Z,99197.94
2022-08-09T08:48:32.167Z,99198.69
2022-08-09T08:50:59.970Z,99208.03
2022-08-09T08:53:32.298Z,99217.81
2022-08-09T08:56:05.463Z,99211.03
2022-08-09T08:58:33.473Z,99214.84
2022-08-09T09:01:08.940Z,99213.16
2022-08-09T09:03:49.389Z,99214.53
2022-08-09T09:06:19.376Z,99218.88
2022-08-09T09:08:52.593Z,99211.66
2022-08-09T09:11:20.356Z,99207.91
2022-08-09T09:13:56.829Z,99204.75
2022-08-09T09:16:34.190Z,99213.09
2022-08-09T09:22:00.760Z,99211.28
2022-08-09T09:24:33.476Z,99217.56
2022-08-09T09:27:02.181Z,99223.97
2022-08-09T09:29:45.702Z,99212.06
2022-08-09T09:32:34.175Z,99218.88
2022-08-09T09:35:09.276Z,99206.41
2022-08-09T09:37:40.500Z,99209.28
2022-08-09T09:40:09.352Z,99214.06
2022-08-09T09:42:36.233Z,99206.16
2022-08-09T09:45:08.338Z,99210.44
2022-08-09T09:47:42.271Z,99212.97
2022-08-09T09:50:23.196Z,99213.47
2022-08-09T09:52:53.963Z,99205.25
2022-08-09T09:55:28.249Z,99201.06
2022-08-09T09:58:15.874Z,99190.31
2022-08-09T10:00:54.520Z,99191.28
2022-08-09T10:03:58.084Z,99205.00
2022-08-09T10:06:32.309Z,99198.19
2022-08-09T10:09:02.928Z,99206.28
2022-08-09T10:12:04.520Z,99199.63
2022-08-09T10:14:31.777Z,99210.31
2022-08-09T10:17:40.473Z,99206.53
2022-08-09T10:19:57.019Z,99209.50
2022-08-09T10:22:35.408Z,99213.06
2022-08-09T10:25:12.205Z,99213.94
2022-08-09T10:27:57.686Z,99214.81
2022-08-09T10:34:05.149Z,99195.88
2022-08-09T10:36:02.354Z,99200.31
2022-08-09T10:38:34.350Z,99187.03
2022-08-09T10:41:17.773Z,99185.66
2022-08-09T10:43:59.500Z,99185.34
2022-08-09T10:46:33.810Z,99183.28
2022-08-09T10:49:12.340Z,99183.28
2022-08-09T10:52:03.516Z,99188.44
2022-08-09T10:54:30.894Z,99173.06
2022-08-09T10:57:09.719Z,99170.66
2022-08-09T10:59:43.116Z,99173.09
2022-08-09T11:03:16.003Z,99178.72
2022-08-09T11:05:30.069Z,99176.59
2022-08-09T11:08:36.132Z,99173.53
2022-08-09T11:11:10.388Z,99168.94
2022-08-09T11:13:50.553Z,99174.16
2022-08-09T11:16:37.228Z,99170.56
2022-08-09T11:19:07.993Z,99160.16
2022-08-09T11:21:57.115Z,99176.72
2022-08-09T11:25:04.663Z,99164.75
2022-08-09T11:28:04.519Z,99179.50
2022-08-09T11:30:33.753Z,99170.84
2022-08-09T11:33:19.062Z,99163.47
2022-08-09T11:35:50.233Z,99167.88
2022-08-09T11:38:32.531Z,99157.53
2022-08-09T11:41:13.650Z,99160.16
2022-08-09T11:43:43.072Z,99162.72
2022-08-09T11:46:10.368Z,99162.16
2022-08-09T11:48:57.260Z,99168.91
2022-08-09T11:52:56.898Z,99167.75
2022-08-09T11:54:27.471Z,99145.69
2022-08-09T11:56:54.797Z,99148.75
2022-08-09T11:59:30.552Z,99144.38
2022-08-09T12:02:18.044Z,99147.25
2022-08-09T12:04:54.583Z,99152.78
2022-08-09T12:07:41.093Z,99149.41
2022-08-09T12:10:14.107Z,99140.47
2022-08-09T12:12:57.424Z,99142.63
2022-08-09T12:15:50.218Z,99138.56
2022-08-09T12:18:30.021Z,99136.81
2022-08-09T12:21:00.685Z,99137.25
2022-08-09T12:23:56.539Z,99135.16
2022-08-09T12:26:25.505Z,99134.66
2022-08-09T12:29:13.813Z,99138.25
2022-08-09T12:32:02.278Z,99141.94
2022-08-09T12:34:37.904Z,99134.00
2022-08-09T12:37:21.647Z,99133.88
2022-08-09T12:40:05.835Z,99124.53
2022-08-09T12:42:33.698Z,99107.72
2022-08-09T12:45:00.863Z,99133.59
2022-08-09T12:47:37.099Z,99124.13
2022-08-09T12:50:17.220Z,99127.09
2022-08-09T12:53:08.812Z,99116.47
2022-08-09T12:56:16.166Z,99121.91
2022-08-09T12:58:28.012Z,99116.13
2022-08-09T13:00:56.208Z,99117.38
2022-08-09T13:03:54.067Z,99110.53
2022-08-09T13:06:36.827Z,99114.31
2022-08-09T13:09:26.810Z,99104.72
2022-08-09T13:12:04.911Z,99102.38
2022-08-09T13:14:41.146Z,99103.63
2022-08-09T13:17:44.234Z,99104.19
2022-08-09T13:20:14.022Z,99106.41
2022-08-09T13:23:05.449Z,99107.94
2022-08-09T13:25:52.973Z,99100.97
2022-08-09T13:28:34.430Z,99095.25
2022-08-09T13:32:15.269Z,99098.47
2022-08-09T13:33:54.991Z,99093.16
2022-08-09T13:36:39.107Z,99077.69
2022-08-09T13:41:46.476Z,99090.34
2022-08-09T13:42:02.600Z,99081.34
2022-08-09T13:44:29.933Z,99077.75
2022-08-09T13:47:26.789Z,99089.03
2022-08-09T13:49:58.203Z,99087.53
2022-08-09T13:52:29.842Z,99091.34
2022-08-09T13:55:00.668Z,99082.66
2022-08-09T13:57:36.846Z,99075.78
2022-08-09T14:00:12.815Z,99066.13
2022-08-09T14:02:42.460Z,99081.50
2022-08-09T14:06:00.618Z,99083.63
2022-08-09T14:20:30.297Z,99075.72
2022-08-09T14:22:57.406Z,99082.09
2022-08-09T14:25:24.356Z,99069.19
2022-08-09T14:27:58.724Z,99075.75
2022-08-09T14:30:36.256Z,99079.94
2022-08-09T14:33:11.361Z,99067.50
2022-08-09T14:35:52.161Z,99069.16
2022-08-09T14:38:19.769Z,99063.63
2022-08-09T14:41:00.939Z,99066.56
2022-08-09T14:43:47.820Z,99073.13
2022-08-09T14:46:54.602Z,99070.69
2022-08-09T14:49:03.248Z,99056.97
2022-08-09T14:51:30.271Z,99062.66
2022-08-09T14:54:09.375Z,99057.59
2022-08-09T14:56:35.877Z,99064.28
2022-08-09T14:59:22.384Z,99058.66
2022-08-09T15:01:50.309Z,99052.31
2022-08-09T15:04:16.765Z,99054.84
2022-08-09T15:06:43.339Z,99056.00
2022-08-09T15:09:16.712Z,99055.09
2022-08-09T15:12:04.458Z,99058.00
2022-08-09T15:14:33.997Z,99054.22
2022-08-09T15:17:00.617Z,99058.06
2022-08-09T15:19:36.222Z,99069.00
2022-08-09T15:22:03.437Z,99063.94
2022-08-09T15:24:29.984Z,99047.13
2022-08-09T15:26:57.740Z,99054.31
2022-08-09T15:30:58.328Z,99060.31
2022-08-09T15:32:29.944Z,99064.34
2022-08-09T15:35:00.702Z,99064.13
2022-08-09T15:37:56.194Z,99062.88
2022-08-09T15:40:31.971Z,99065.28
2022-08-09T15:42:59.798Z,99063.50
2022-08-09T15:45:29.420Z,99052.59
2022-08-09T15:48:06.560Z,99059.75
2022-08-09T15:50:48.303Z,99043.91
2022-08-09T15:53:18.805Z,99046.28
2022-08-09T15:56:21.735Z,99051.59
2022-08-09T15:58:48.415Z,99050.47
2022-08-09T16:01:17.943Z,99049.03
2022-08-09T16:03:44.458Z,99055.41
2022-08-09T16:06:29.298Z,99053.88
2022-08-09T16:08:59.248Z,99054.75
2022-08-09T16:11:29.992Z,99054.16
2022-08-09T16:14:03.664Z,99052.06
2022-08-09T16:16:36.870Z,99047.84
2022-08-09T16:19:07.758Z,99046.19
2022-08-09T16:21:38.243Z,99051.19
2022-08-09T16:24:05.978Z,99045.31
2022-08-09T16:26:39.716Z,99048.28
2022-08-09T16:29:12.939Z,99052.34
2022-08-09T16:32:18.617Z,99042.44
2022-08-09T16:34:53.405Z,99039.63
2022-08-09T16:37:56.021Z,99039.25
2022-08-09T16:40:08.960Z,99047.22
2022-08-09T16:42:36.551Z,99035.28
2022-08-09T16:45:06.225Z,99044.47
2022-08-09T16:48:40.194Z,99039.41
2022-08-09T16:50:31.434Z,99037.22
2022-08-09T16:53:01.312Z,99040.00
2022-08-09T16:55:31.466Z,99040.50
2022-08-09T16:58:16.485Z,99033.78
2022-08-09T17:00:43.264Z,99034.41
2022-08-09T17:03:20.960Z,99031.09
2022-08-09T17:06:08.404Z,99041.47
2022-08-09T17:09:03.106Z,99034.31
2022-08-09T17:11:40.608Z,99037.66
2022-08-09T17:14:25.467Z,99036.41
2022-08-09T17:16:57.020Z,99040.84
2022-08-09T17:19:27.607Z,99030.56
2022-08-09T17:22:14.352Z,99039.31
2022-08-09T17:24:41.480Z,99039.31
2022-08-09T17:27:15.223Z,99036.56
2022-08-09T17:29:45.565Z,99044.22
2022-08-09T17:32:15.695Z,99050.09
2022-08-09T17:35:00.827Z,99044.69
2022-08-09T17:37:29.682Z,99043.72
2022-08-09T17:39:58.147Z,99052.97
2022-08-09T17:42:41.302Z,99035.28
2022-08-09T17:45:16.061Z,99044.31
2022-08-09T17:47:54.712Z,99060.28
2022-08-09T17:50:36.494Z,99060.59
2022-08-09T17:53:19.489Z,99054.53
2022-08-09T17:55:52.018Z,99056.69
2022-08-09T17:58:26.691Z,99062.38
2022-08-09T18:00:54.969Z,99064.09
2022-08-09T18:03:24.002Z,99068.56
2022-08-09T18:05:52.955Z,99068.94
2022-08-09T18:08:22.167Z,99075.94
2022-08-09T18:11:00.860Z,99069.44
2022-08-09T18:13:43.073Z,99075.06
2022-08-09T18:16:17.273Z,99072.09
2022-08-09T18:18:57.789Z,99080.91
2022-08-09T18:21:26.060Z,99076.03
2022-08-09T18:24:10.037Z,99078.91
2022-08-09T18:26:45.935Z,99083.13
2022-08-09T18:30:39.571Z,99083.69
2022-08-09T18:32:00.506Z,99092.31
2022-08-09T18:34:31.588Z,99100.31
2022-08-09T18:36:58.576Z,99092.16
2022-08-09T18:39:32.591Z,99088.56
2022-08-09T18:42:05.264Z,99097.16
2022-08-09T18:44:35.159Z,99096.94
2022-08-09T18:47:07.795Z,99106.06
2022-08-09T18:49:41.549Z,99111.84
2022-08-09T18:52:11.725Z,99109.66
2022-08-09T18:54:39.492Z,99114.84
2022-08-09T18:57:16.455Z,99124.19
2022-08-09T18:59:48.998Z,99115.34
2022-08-09T19:02:16.485Z,99117.22
2022-08-09T19:04:47.271Z,99125.97
2022-08-09T19:07:16.510Z,99131.38
2022-08-09T19:10:14.043Z,99134.41
2022-08-09T19:12:31.759Z,99142.50
2022-08-09T19:15:00.400Z,99135.31
2022-08-09T19:17:31.225Z,99136.09
2022-08-09T19:20:16.882Z,99140.22
2022-08-09T19:22:50.316Z,99143.97
2022-08-09T19:25:41.269Z,99147.16
2022-08-09T19:28:08.431Z,99142.56
2022-08-09T19:30:44.431Z,99148.78
2022-08-09T19:33:19.568Z,99147.63
2022-08-09T19:35:57.021Z,99151.97
2022-08-09T19:38:24.281Z,99156.22
2022-08-09T19:40:50.871Z,99155.94
2022-08-09T19:43:58.077Z,99155.84
2022-08-09T19:46:08.417Z,99162.78
2022-08-09T19:49:02.182Z,99155.78
2022-08-09T19:51:30.963Z,99168.06
2022-08-09T19:53:59.636Z,99164.50
2022-08-09T19:56:29.012Z,99167.41
2022-08-09T19:59:33.351Z,99168.91
2022-08-09T20:01:53.161Z,99165.69
2022-08-09T20:04:37.624Z,99160.69
2022-08-09T20:07:20.883Z,99164.38
2022-08-09T20:09:48.788Z,99164.03
2022-08-09T20:12:22.330Z,99172.34
2022-08-09T20:14:56.882Z,99173.75
2022-08-09T20:17:23.333Z,99167.56
2022-08-09T20:19:54.743Z,99173.75
2022-08-09T20:22:31.915Z,99168.66
2022-08-09T20:24:59.288Z,99165.53
2022-08-09T20:27:29.296Z,99161.47
2022-08-09T20:29:57.219Z,99154.94
2022-08-09T20:32:30.394Z,99154.34
2022-08-09T20:35:00.057Z,99172.69
2022-08-09T20:38:18.624Z,99167.22
2022-08-09T20:40:24.762Z,99171.69
2022-08-09T20:43:00.246Z,99173.44
2022-08-09T20:45:59.170Z,99170.34
2022-08-09T20:48:31.011Z,99172.78
2022-08-09T20:50:58.582Z,99173.56
2022-08-09T20:53:36.372Z,99167.91
2022-08-09T20:56:05.427Z,99172.75
2022-08-09T20:58:33.175Z,99173.94
2022-08-09T21:01:32.314Z,99178.41
2022-08-09T21:04:08.100Z,99178.19
2022-08-09T21:06:41.270Z,99180.94
2022-08-09T21:09:11.733Z,99167.06
2022-08-09T21:14:26.753Z,99170.38
2022-08-09T21:16:57.511Z,99171.25
2022-08-09T21:20:18.395Z,99165.31
2022-08-09T21:22:38.532Z,99165.69
2022-08-09T21:25:18.569Z,99154.41
2022-08-09T21:27:52.609Z,99156.09
2022-08-09T21:30:22.340Z,99154.53
2022-08-09T21:32:49.785Z,99162.28
2022-08-09T21:35:16.886Z,99163.81
2022-08-09T21:37:59.557Z,99162.03
2022-08-09T21:40:30.247Z,99156.44
2022-08-09T21:43:01.026Z,99155.88
2022-08-09T21:45:27.997Z,99164.88
2022-08-09T21:47:54.440Z,99159.78
2022-08-09T21:50:35.829Z,99162.16
2022-08-09T21:53:24.038Z,99166.38
2022-08-09T21:55:54.593Z,99171.53
2022-08-09T21:58:21.227Z,99169.63
2022-08-09T22:00:57.500Z,99168.44
2022-08-09T22:03:29.407Z,99165.06
2022-08-09T22:05:57.916Z,99176.50
2022-08-09T22:08:27.945Z,99176.00
2022-08-09T22:11:50.136Z,99168.44
2022-08-09T22:13:43.408Z,99172.47
2022-08-09T22:16:11.585Z,99170.34
2022-08-09T22:18:53.481Z,99173.78
2022-08-09T22:21:45.044Z,99172.81
2022-08-09T22:24:17.320Z,99178.50
2022-08-09T22:26:51.848Z,99181.03
2022-08-09T22:29:18.985Z,99175.91
2022-08-09T22:31:56.977Z,99179.84
2022-08-09T22:34:27.889Z,99179.56
2022-08-09T22:36:56.423Z,99169.25
2022-08-09T22:39:55.864Z,99183.03
2022-08-09T22:42:23.247Z,99178.41
2022-08-09T22:48:05.152Z,99178.88
2022-08-09T22:48:10.309Z,99176.13
2022-08-09T22:50:29.704Z,99176.25
2022-08-09T22:52:57.844Z,99181.91
2022-08-09T22:55:39.344Z,99169.69
2022-08-09T22:58:20.411Z,99170.84
2022-08-09T23:01:03.735Z,99179.34
2022-08-09T23:04:03.379Z,99172.63
2022-08-09T23:06:30.098Z,99174.38
2022-08-09T23:09:06.893Z,99169.63
2022-08-09T23:11:33.453Z,99161.09
2022-08-09T23:13:59.904Z,99165.56
2022-08-09T23:16:26.356Z,99156.50
2022-08-09T23:18:52.808Z,99151.88
2022-08-09T23:21:24.589Z,99155.94
2022-08-09T23:24:01.449Z,99143.03
2022-08-09T23:26:34.846Z,99142.88
2022-08-09T23:29:01.451Z,99137.66
2022-08-09T23:31:28.240Z,99141.47
2022-08-09T23:33:54.760Z,99134.06
2022-08-09T23:36:21.239Z,99130.53
2022-08-09T23:38:48.966Z,99123.41
2022-08-09T23:41:28.565Z,99129.16
2022-08-09T23:43:59.779Z,99129.47
2022-08-09T23:46:28.164Z,99119.81
2022-08-09T23:48:54.877Z,99133.69
2022-08-09T23:51:21.659Z,99117.63
2022-08-09T23:53:49.561Z,99117.91
2022-08-09T23:56:18.891Z,99112.47
2022-08-09T23:59:05.685Z,99111.03
